sensor_id;sensor_type;location;lat;lon;timestamp;pressure;altitude;pressure_sealevel;temperature;humidity
11808;BME280;5961;42.640;23.380;2023-10-08T00:00:23;94509.91;;;14.59;49.16
11808;BME280;5961;42.640;23.380;2023-10-08T00:03:09;94490.31;;;14.70;47.68
11808;BME280;5961;42.640;23.380;2023-10-08T00:05:36;94490.13;;;14.79;48.23
11808;BME280;5961;42.640;23.380;2023-10-08T00:08:05;94491.81;;;14.87;48.14
11808;BME280;5961;42.640;23.380;2023-10-08T00:10:34;94498.66;;;14.84;45.99
11808;BME280;5961;42.640;23.380;2023-10-08T00:13:03;94483.16;;;14.74;45.21
11808;BME280;5961;42.640;23.380;2023-10-08T00:15:33;94482.34;;;14.90;44.81
11808;BME280;5961;42.640;23.380;2023-10-08T00:18:02;94477.59;;;14.83;44.88
11808;BME280;5961;42.640;23.380;2023-10-08T00:20:31;94488.28;;;14.99;45.36
11808;BME280;5961;42.640;23.380;2023-10-08T00:23:04;94471.00;;;14.96;45.83
11808;BME280;5961;42.640;23.380;2023-10-08T00:25:33;94490.28;;;15.02;46.85
11808;BME280;5961;42.640;23.380;2023-10-08T00:28:08;94471.19;;;15.03;46.98
11808;BME280;5961;42.640;23.380;2023-10-08T00:30:39;94475.50;;;15.08;46.46
11808;BME280;5961;42.640;23.380;2023-10-08T00:33:07;94467.47;;;15.08;45.90
11808;BME280;5961;42.640;23.380;2023-10-08T00:35:37;94474.34;;;15.09;44.56
11808;BME280;5961;42.640;23.380;2023-10-08T00:38:07;94479.88;;;15.16;45.79
11808;BME280;5961;42.640;23.380;2023-10-08T00:40:40;94435.09;;;14.97;46.79
11808;BME280;5961;42.640;23.380;2023-10-08T00:45:53;94475.91;;;15.10;45.03
11808;BME280;5961;42.640;23.380;2023-10-08T00:48:20;94459.84;;;15.10;45.24
11808;BME280;5961;42.640;23.380;2023-10-08T00:50:54;94460.72;;;15.14;44.93
11808;BME280;5961;42.640;23.380;2023-10-08T00:53:36;94458.28;;;15.09;44.86
11808;BME280;5961;42.640;23.380;2023-10-08T00:56:05;94449.44;;;15.05;44.96
11808;BME280;5961;42.640;23.380;2023-10-08T00:58:39;94450.94;;;14.87;45.65
11808;BME280;5961;42.640;23.380;2023-10-08T01:01:06;94454.63;;;14.82;46.33
11808;BME280;5961;42.640;23.380;2023-10-08T01:03:35;94459.75;;;14.71;45.64
11808;BME280;5961;42.640;23.380;2023-10-08T01:06:04;94444.50;;;14.56;45.82
11808;BME280;5961;42.640;23.380;2023-10-08T01:08:36;94458.56;;;14.53;46.92
11808;BME280;5961;42.640;23.380;2023-10-08T01:11:17;94444.25;;;14.46;46.43
11808;BME280;5961;42.640;23.380;2023-10-08T01:13:45;94450.00;;;14.48;47.70
11808;BME280;5961;42.640;23.380;2023-10-08T01:16:12;94434.50;;;14.38;45.63
11808;BME280;5961;42.640;23.380;2023-10-08T01:18:40;94449.75;;;14.37;47.23
11808;BME280;5961;42.640;23.380;2023-10-08T01:21:17;94452.25;;;14.46;48.05
11808;BME280;5961;42.640;23.380;2023-10-08T01:24:01;94446.22;;;14.49;48.51
11808;BME280;5961;42.640;23.380;2023-10-08T01:26:31;94454.66;;;14.51;48.06
11808;BME280;5961;42.640;23.380;2023-10-08T01:28:58;94455.53;;;14.55;47.62
11808;BME280;5961;42.640;23.380;2023-10-08T01:31:28;94441.06;;;14.40;46.94
11808;BME280;5961;42.640;23.380;2023-10-08T01:33:55;94447.47;;;14.23;48.02
11808;BME280;5961;42.640;23.380;2023-10-08T01:36:23;94450.28;;;13.99;48.91
11808;BME280;5961;42.640;23.380;2023-10-08T01:38:50;94449.13;;;13.69;50.34
11808;BME280;5961;42.640;23.380;2023-10-08T01:41:21;94446.75;;;13.52;51.12
11808;BME280;5961;42.640;23.380;2023-10-08T01:43:56;94460.94;;;13.40;51.83
11808;BME280;5961;42.640;23.380;2023-10-08T01:46:24;94461.03;;;13.44;52.08
11808;BME280;5961;42.640;23.380;2023-10-08T01:48:52;94456.91;;;13.46;52.41
11808;BME280;5961;42.640;23.380;2023-10-08T01:51:29;94449.56;;;13.43;52.42
11808;BME280;5961;42.640;23.380;2023-10-08T01:54:03;94453.59;;;13.37;52.86
11808;BME280;5961;42.640;23.380;2023-10-08T01:56:38;94440.06;;;13.18;52.84
11808;BME280;5961;42.640;23.380;2023-10-08T01:59:07;94457.28;;;13.20;52.88
11808;BME280;5961;42.640;23.380;2023-10-08T02:01:35;94443.31;;;12.99;53.10
11808;BME280;5961;42.640;23.380;2023-10-08T02:04:04;94449.44;;;12.88;53.04
11808;BME280;5961;42.640;23.380;2023-10-08T02:06:32;94460.25;;;12.79;53.46
11808;BME280;5961;42.640;23.380;2023-10-08T02:08:58;94452.78;;;12.85;53.62
11808;BME280;5961;42.640;23.380;2023-10-08T02:11:31;94453.13;;;12.83;53.92
11808;BME280;5961;42.640;23.380;2023-10-08T02:13:59;94453.25;;;12.87;54.25
11808;BME280;5961;42.640;23.380;2023-10-08T02:16:27;94459.22;;;12.96;54.12
11808;BME280;5961;42.640;23.380;2023-10-08T02:18:54;94460.56;;;13.02;54.32
11808;BME280;5961;42.640;23.380;2023-10-08T02:21:21;94441.97;;;12.93;55.00
11808;BME280;5961;42.640;23.380;2023-10-08T02:23:47;94446.22;;;12.94;55.23
11808;BME280;5961;42.640;23.380;2023-10-08T02:26:14;94448.31;;;13.01;55.29
11808;BME280;5961;42.640;23.380;2023-10-08T02:28:41;94453.91;;;12.96;55.49
11808;BME280;5961;42.640;23.380;2023-10-08T02:31:09;94427.44;;;12.91;55.49
11808;BME280;5961;42.640;23.380;2023-10-08T02:33:36;94436.75;;;12.97;55.11
11808;BME280;5961;42.640;23.380;2023-10-08T02:36:03;94432.63;;;12.99;54.92
11808;BME280;5961;42.640;23.380;2023-10-08T02:38:30;94419.66;;;12.86;54.84
11808;BME280;5961;42.640;23.380;2023-10-08T02:41:03;94436.09;;;13.00;54.21
11808;BME280;5961;42.640;23.380;2023-10-08T02:43:32;94428.53;;;13.02;54.35
11808;BME280;5961;42.640;23.380;2023-10-08T02:45:59;94438.19;;;13.06;53.84
11808;BME280;5961;42.640;23.380;2023-10-08T02:48:28;94418.09;;;13.09;54.30
11808;BME280;5961;42.640;23.380;2023-10-08T02:50:55;94421.53;;;13.09;53.37
11808;BME280;5961;42.640;23.380;2023-10-08T02:53:32;94433.00;;;13.10;53.74
11808;BME280;5961;42.640;23.380;2023-10-08T02:55:59;94439.66;;;13.16;53.92
11808;BME280;5961;42.640;23.380;2023-10-08T02:58:27;94430.53;;;13.05;53.54
11808;BME280;5961;42.640;23.380;2023-10-08T03:00:56;94433.31;;;13.08;53.64
11808;BME280;5961;42.640;23.380;2023-10-08T03:03:23;94436.97;;;13.16;53.41
11808;BME280;5961;42.640;23.380;2023-10-08T03:05:52;94390.78;;;12.76;52.91
11808;BME280;5961;42.640;23.380;2023-10-08T03:08:22;94414.63;;;12.96;52.45
11808;BME280;5961;42.640;23.380;2023-10-08T03:10:50;94450.53;;;13.23;52.40
11808;BME280;5961;42.640;23.380;2023-10-08T03:13:21;94434.94;;;13.25;51.85
11808;BME280;5961;42.640;23.380;2023-10-08T03:15:48;94436.72;;;13.21;52.12
11808;BME280;5961;42.640;23.380;2023-10-08T03:18:33;94439.75;;;13.19;52.92
11808;BME280;5961;42.640;23.380;2023-10-08T03:21:03;94443.28;;;13.24;53.20
11808;BME280;5961;42.640;23.380;2023-10-08T03:23:39;94422.28;;;13.22;53.33
11808;BME280;5961;42.640;23.380;2023-10-08T03:26:11;94431.84;;;13.23;53.55
11808;BME280;5961;42.640;23.380;2023-10-08T03:28:54;94429.34;;;13.30;53.18
11808;BME280;5961;42.640;23.380;2023-10-08T03:31:23;94420.72;;;13.21;52.76
11808;BME280;5961;42.640;23.380;2023-10-08T03:34:10;94430.34;;;13.38;52.46
11808;BME280;5961;42.640;23.380;2023-10-08T03:36:40;94428.22;;;13.43;53.15
11808;BME280;5961;42.640;23.380;2023-10-08T03:39:09;94423.50;;;13.52;53.32
11808;BME280;5961;42.640;23.380;2023-10-08T03:41:39;94408.59;;;13.51;52.62
11808;BME280;5961;42.640;23.380;2023-10-08T03:44:07;94423.03;;;13.62;52.47
11808;BME280;5961;42.640;23.380;2023-10-08T03:46:38;94418.97;;;13.68;52.48
11808;BME280;5961;42.640;23.380;2023-10-08T03:49:08;94418.03;;;13.77;52.37
11808;BME280;5961;42.640;23.380;2023-10-08T03:51:52;94423.22;;;13.85;52.23
11808;BME280;5961;42.640;23.380;2023-10-08T03:54:19;94416.47;;;13.75;52.46
11808;BME280;5961;42.640;23.380;2023-10-08T03:56:55;94415.00;;;13.62;52.17
11808;BME280;5961;42.640;23.380;2023-10-08T03:59:23;94406.06;;;13.70;52.32
11808;BME280;5961;42.640;23.380;2023-10-08T04:01:57;94399.56;;;13.56;53.44
11808;BME280;5961;42.640;23.380;2023-10-08T04:04:34;94363.50;;;13.34;53.87
11808;BME280;5961;42.640;23.380;2023-10-08T04:07:18;94390.47;;;13.45;54.10
11808;BME280;5961;42.640;23.380;2023-10-08T04:09:55;94403.56;;;13.34;54.85
11808;BME280;5961;42.640;23.380;2023-10-08T04:12:39;94380.09;;;13.28;54.31
11808;BME280;5961;42.640;23.380;2023-10-08T04:15:10;94364.50;;;13.02;54.23
11808;BME280;5961;42.640;23.380;2023-10-08T04:17:38;94405.16;;;13.23;54.69
11808;BME280;5961;42.640;23.380;2023-10-08T04:20:11;94402.66;;;13.30;54.92
11808;BME280;5961;42.640;23.380;2023-10-08T04:22:57;94397.53;;;13.37;55.18
11808;BME280;5961;42.640;23.380;2023-10-08T04:25:25;94398.22;;;13.34;55.45
11808;BME280;5961;42.640;23.380;2023-10-08T04:27:53;94398.47;;;13.45;55.38
11808;BME280;5961;42.640;23.380;2023-10-08T04:30:24;94398.47;;;13.72;87.44
11808;BME280;5961;42.640;23.380;2023-10-08T04:32:58;94408.97;;;13.65;59.16
11808;BME280;5961;42.640;23.380;2023-10-08T04:35:32;94400.88;;;13.62;56.39
11808;BME280;5961;42.640;23.380;2023-10-08T04:38:04;94399.78;;;13.51;56.59
11808;BME280;5961;42.640;23.380;2023-10-08T04:40:34;94403.75;;;13.41;56.58
11808;BME280;5961;42.640;23.380;2023-10-08T04:43:07;94403.59;;;13.22;57.44
11808;BME280;5961;42.640;23.380;2023-10-08T04:45:36;94407.41;;;13.09;58.41
11808;BME280;5961;42.640;23.380;2023-10-08T04:48:04;94381.00;;;12.80;58.57
11808;BME280;5961;42.640;23.380;2023-10-08T04:50:35;94405.41;;;12.94;59.22
11808;BME280;5961;42.640;23.380;2023-10-08T04:53:04;94420.06;;;13.00;59.15
11808;BME280;5961;42.640;23.380;2023-10-08T04:55:34;94426.72;;;13.06;59.29
11808;BME280;5961;42.640;23.380;2023-10-08T04:58:01;94423.41;;;13.09;59.43
11808;BME280;5961;42.640;23.380;2023-10-08T05:00:37;94415.94;;;13.14;59.19
11808;BME280;5961;42.640;23.380;2023-10-08T05:03:19;94401.75;;;13.10;58.88
11808;BME280;5961;42.640;23.380;2023-10-08T05:05:48;94413.06;;;13.19;59.11
11808;BME280;5961;42.640;23.380;2023-10-08T05:08:34;94419.06;;;13.16;59.20
11808;BME280;5961;42.640;23.380;2023-10-08T05:11:13;94423.63;;;13.16;59.01
11808;BME280;5961;42.640;23.380;2023-10-08T05:14:02;94357.03;;;12.68;59.51
11808;BME280;5961;42.640;23.380;2023-10-08T05:16:41;94424.56;;;13.08;59.98
11808;BME280;5961;42.640;23.380;2023-10-08T05:19:25;94404.75;;;12.97;60.05
11808;BME280;5961;42.640;23.380;2023-10-08T05:22:14;94418.97;;;13.13;60.10
11808;BME280;5961;42.640;23.380;2023-10-08T05:24:46;94427.41;;;13.15;59.77
11808;BME280;5961;42.640;23.380;2023-10-08T05:27:33;94429.53;;;13.09;60.20
11808;BME280;5961;42.640;23.380;2023-10-08T05:30:20;94429.84;;;13.20;59.98
11808;BME280;5961;42.640;23.380;2023-10-08T05:32:54;94426.94;;;13.25;59.69
11808;BME280;5961;42.640;23.380;2023-10-08T05:35:41;94432.03;;;13.30;60.04
11808;BME280;5961;42.640;23.380;2023-10-08T05:38:28;94426.69;;;13.30;60.38
11808;BME280;5961;42.640;23.380;2023-10-08T05:41:15;94432.25;;;13.37;60.23
11808;BME280;5961;42.640;23.380;2023-10-08T05:44:16;94441.97;;;13.45;60.04
11808;BME280;5961;42.640;23.380;2023-10-08T05:46:49;94427.78;;;13.41;59.56
11808;BME280;5961;42.640;23.380;2023-10-08T05:49:54;94441.50;;;13.55;59.23
11808;BME280;5961;42.640;23.380;2023-10-08T05:52:40;94437.81;;;13.60;59.03
11808;BME280;5961;42.640;23.380;2023-10-08T05:55:28;94432.81;;;13.58;59.35
11808;BME280;5961;42.640;23.380;2023-10-08T05:58:02;94428.34;;;13.62;59.29
11808;BME280;5961;42.640;23.380;2023-10-08T06:00:39;94442.97;;;13.81;59.59
11808;BME280;5961;42.640;23.380;2023-10-08T06:03:26;94416.56;;;13.79;59.42
11808;BME280;5961;42.640;23.380;2023-10-08T06:06:03;94442.72;;;14.01;58.82
11808;BME280;5961;42.640;23.380;2023-10-08T06:08:44;94441.00;;;14.09;58.13
11808;BME280;5961;42.640;23.380;2023-10-08T06:11:46;94443.19;;;14.19;58.45
11808;BME280;5961;42.640;23.380;2023-10-08T06:14:34;94447.31;;;14.32;58.40
11808;BME280;5961;42.640;23.380;2023-10-08T06:17:19;94436.50;;;14.41;57.18
11808;BME280;5961;42.640;23.380;2023-10-08T06:20:10;94433.22;;;14.47;56.96
11808;BME280;5961;42.640;23.380;2023-10-08T06:22:42;94422.06;;;14.45;56.75
11808;BME280;5961;42.640;23.380;2023-10-08T06:25:09;94432.94;;;14.52;56.59
11808;BME280;5961;42.640;23.380;2023-10-08T06:27:49;94430.59;;;14.66;56.72
11808;BME280;5961;42.640;23.380;2023-10-08T06:30:21;94436.53;;;14.75;56.62
11808;BME280;5961;42.640;23.380;2023-10-08T06:32:49;94437.09;;;14.84;56.61
11808;BME280;5961;42.640;23.380;2023-10-08T06:35:19;94440.28;;;14.90;56.63
11808;BME280;5961;42.640;23.380;2023-10-08T06:37:50;94442.09;;;15.02;56.33
11808;BME280;5961;42.640;23.380;2023-10-08T06:40:20;94444.66;;;15.14;56.04
11808;BME280;5961;42.640;23.380;2023-10-08T06:43:05;94438.72;;;15.24;55.34
11808;BME280;5961;42.640;23.380;2023-10-08T06:45:41;94379.31;;;14.99;55.27
11808;BME280;5961;42.640;23.380;2023-10-08T06:48:09;94439.88;;;15.42;54.73
11808;BME280;5961;42.640;23.380;2023-10-08T06:50:44;94437.78;;;15.51;54.36
11808;BME280;5961;42.640;23.380;2023-10-08T06:53:10;94431.72;;;15.54;54.18
11808;BME280;5961;42.640;23.380;2023-10-08T06:55:39;94432.69;;;15.65;53.75
11808;BME280;5961;42.640;23.380;2023-10-08T06:58:07;94426.63;;;15.68;53.63
11808;BME280;5961;42.640;23.380;2023-10-08T08:11:42;94388.00;;;17.46;50.70
11808;BME280;5961;42.640;23.380;2023-10-08T08:14:11;94378.09;;;17.53;50.45
11808;BME280;5961;42.640;23.380;2023-10-08T08:16:42;94372.78;;;17.57;50.33
11808;BME280;5961;42.640;23.380;2023-10-08T08:19:11;94368.28;;;17.65;50.39
11808;BME280;5961;42.640;23.380;2023-10-08T08:21:41;94362.91;;;17.68;50.89
11808;BME280;5961;42.640;23.380;2023-10-08T08:24:11;94357.59;;;17.72;50.28
11808;BME280;5961;42.640;23.380;2023-10-08T08:26:39;94354.25;;;17.82;49.96
11808;BME280;5961;42.640;23.380;2023-10-08T08:29:27;94366.59;;;17.90;45.85
11808;BME280;5961;42.640;23.380;2023-10-08T08:31:55;94361.69;;;17.99;42.94
11808;BME280;5961;42.640;23.380;2023-10-08T08:34:22;94364.50;;;18.09;43.15
11808;BME280;5961;42.640;23.380;2023-10-08T08:36:49;94365.72;;;18.23;40.74
11808;BME280;5961;42.640;23.380;2023-10-08T08:39:16;94353.19;;;18.41;40.73
11808;BME280;5961;42.640;23.380;2023-10-08T08:41:58;94336.03;;;18.56;40.19
11808;BME280;5961;42.640;23.380;2023-10-08T08:44:29;94346.53;;;18.72;40.62
11808;BME280;5961;42.640;23.380;2023-10-08T08:47:00;94342.78;;;18.90;36.50
11808;BME280;5961;42.640;23.380;2023-10-08T08:49:32;94347.91;;;19.16;35.30
11808;BME280;5961;42.640;23.380;2023-10-08T08:52:00;94341.81;;;19.30;35.20
11808;BME280;5961;42.640;23.380;2023-10-08T08:54:27;94351.13;;;19.47;35.05
11808;BME280;5961;42.640;23.380;2023-10-08T08:56:56;94338.88;;;19.60;34.02
11808;BME280;5961;42.640;23.380;2023-10-08T08:59:23;94331.56;;;19.71;34.36
11808;BME280;5961;42.640;23.380;2023-10-08T09:01:53;94343.16;;;19.89;33.85
11808;BME280;5961;42.640;23.380;2023-10-08T09:04:28;94318.47;;;19.80;33.70
11808;BME280;5961;42.640;23.380;2023-10-08T09:06:55;94348.56;;;20.07;33.17
11808;BME280;5961;42.640;23.380;2023-10-08T09:09:23;94365.16;;;20.05;33.17
11808;BME280;5961;42.640;23.380;2023-10-08T09:11:57;94341.25;;;20.14;33.25
11808;BME280;5961;42.640;23.380;2023-10-08T09:14:25;94278.03;;;19.87;33.08
11808;BME280;5961;42.640;23.380;2023-10-08T09:16:53;94350.56;;;20.28;33.21
11808;BME280;5961;42.640;23.380;2023-10-08T09:19:21;94348.25;;;20.30;33.43
11808;BME280;5961;42.640;23.380;2023-10-08T09:22:00;94336.66;;;20.29;32.77
11808;BME280;5961;42.640;23.380;2023-10-08T09:24:29;94328.97;;;20.28;32.33
11808;BME280;5961;42.640;23.380;2023-10-08T09:26:55;94334.34;;;20.35;32.65
11808;BME280;5961;42.640;23.380;2023-10-08T09:29:23;94333.56;;;20.34;32.80
11808;BME280;5961;42.640;23.380;2023-10-08T09:31:55;94341.69;;;20.38;32.84
11808;BME280;5961;42.640;23.380;2023-10-08T09:34:26;94326.63;;;20.44;33.02
11808;BME280;5961;42.640;23.380;2023-10-08T09:36:55;94362.09;;;20.49;32.71
11808;BME280;5961;42.640;23.380;2023-10-08T09:39:23;94324.72;;;20.51;32.36
11808;BME280;5961;42.640;23.380;2023-10-08T09:41:53;94318.91;;;20.60;32.34
11808;BME280;5961;42.640;23.380;2023-10-08T09:44:21;94328.53;;;20.68;32.48
11808;BME280;5961;42.640;23.380;2023-10-08T09:46:52;94306.53;;;20.73;32.25
11808;BME280;5961;42.640;23.380;2023-10-08T09:49:29;94326.19;;;20.84;31.74
11808;BME280;5961;42.640;23.380;2023-10-08T09:52:00;94263.34;;;20.62;32.20
11808;BME280;5961;42.640;23.380;2023-10-08T09:54:29;94311.47;;;20.99;31.82
11808;BME280;5961;42.640;23.380;2023-10-08T09:56:59;94296.41;;;21.05;31.86
11808;BME280;5961;42.640;23.380;2023-10-08T09:59:29;94301.00;;;21.15;31.96
11808;BME280;5961;42.640;23.380;2023-10-08T10:01:57;94293.25;;;21.24;31.16
11808;BME280;5961;42.640;23.380;2023-10-08T10:04:30;94290.94;;;21.26;31.27
11808;BME280;5961;42.640;23.380;2023-10-08T10:06:58;94249.28;;;21.06;31.32
11808;BME280;5961;42.640;23.380;2023-10-08T10:09:25;94284.69;;;21.44;31.31
11808;BME280;5961;42.640;23.380;2023-10-08T10:11:54;94276.19;;;21.42;30.86
11808;BME280;5961;42.640;23.380;2023-10-08T10:14:23;94307.81;;;21.52;30.67
11808;BME280;5961;42.640;23.380;2023-10-08T10:17:08;94278.44;;;21.54;30.74
11808;BME280;5961;42.640;23.380;2023-10-08T10:19:37;94270.69;;;21.56;30.96
11808;BME280;5961;42.640;23.380;2023-10-08T10:22:12;94308.97;;;21.54;31.34
11808;BME280;5961;42.640;23.380;2023-10-08T10:24:40;94275.31;;;21.59;31.36
11808;BME280;5961;42.640;23.380;2023-10-08T10:27:14;94306.63;;;21.60;31.39
11808;BME280;5961;42.640;23.380;2023-10-08T10:29:42;94268.38;;;21.58;31.75
11808;BME280;5961;42.640;23.380;2023-10-08T10:32:11;94303.16;;;21.56;31.19
11808;BME280;5961;42.640;23.380;2023-10-08T10:34:42;94305.44;;;21.61;31.52
11808;BME280;5961;42.640;23.380;2023-10-08T10:37:10;94289.97;;;21.65;31.45
11808;BME280;5961;42.640;23.380;2023-10-08T10:39:50;94226.19;;;21.64;31.80
11808;BME280;5961;42.640;23.380;2023-10-08T10:42:19;94252.72;;;21.86;31.71
11808;BME280;5961;42.640;23.380;2023-10-08T10:44:47;94252.66;;;21.97;31.61
11808;BME280;5961;42.640;23.380;2023-10-08T10:47:16;94240.31;;;21.96;31.90
11808;BME280;5961;42.640;23.380;2023-10-08T10:49:53;94293.47;;;22.24;32.01
11808;BME280;5961;42.640;23.380;2023-10-08T10:52:41;94248.84;;;22.39;31.95
11808;BME280;5961;42.640;23.380;2023-10-08T10:55:11;94271.94;;;22.51;31.85
11808;BME280;5961;42.640;23.380;2023-10-08T10:57:50;94279.94;;;22.61;31.89
11808;BME280;5961;42.640;23.380;2023-10-08T11:00:30;94233.44;;;22.70;31.74
11808;BME280;5961;42.640;23.380;2023-10-08T11:03:22;94257.44;;;22.71;32.03
11808;BME280;5961;42.640;23.380;2023-10-08T11:05:55;94235.28;;;22.80;31.68
11808;BME280;5961;42.640;23.380;2023-10-08T11:08:25;94206.22;;;22.80;31.62
11808;BME280;5961;42.640;23.380;2023-10-08T11:11:00;94220.81;;;22.93;31.49
11808;BME280;5961;42.640;23.380;2023-10-08T11:13:33;94223.38;;;23.04;31.50
11808;BME280;5961;42.640;23.380;2023-10-08T11:16:03;94236.41;;;23.13;31.36
11808;BME280;5961;42.640;23.380;2023-10-08T11:18:30;94223.56;;;23.20;31.22
11808;BME280;5961;42.640;23.380;2023-10-08T11:21:07;94219.09;;;23.33;31.36
11808;BME280;5961;42.640;23.380;2023-10-08T11:23:45;94229.50;;;23.38;30.83
11808;BME280;5961;42.640;23.380;2023-10-08T11:26:18;94248.78;;;23.47;31.04
11808;BME280;5961;42.640;23.380;2023-10-08T11:28:47;94220.28;;;23.63;30.88
11808;BME280;5961;42.640;23.380;2023-10-08T11:31:17;94226.78;;;23.69;31.06
11808;BME280;5961;42.640;23.380;2023-10-08T11:33:45;94243.41;;;23.71;30.80
11808;BME280;5961;42.640;23.380;2023-10-08T11:36:21;94204.25;;;23.72;30.57
11808;BME280;5961;42.640;23.380;2023-10-08T11:38:53;94195.78;;;23.66;30.96
11808;BME280;5961;42.640;23.380;2023-10-08T11:41:27;94197.28;;;23.71;31.34
11808;BME280;5961;42.640;23.380;2023-10-08T11:43:56;94197.38;;;23.64;31.49
11808;BME280;5961;42.640;23.380;2023-10-08T11:46:24;94190.69;;;23.72;31.79
11808;BME280;5961;42.640;23.380;2023-10-08T11:48:58;94210.53;;;23.65;31.81
11808;BME280;5961;42.640;23.380;2023-10-08T11:51:31;94210.25;;;23.60;32.26
11808;BME280;5961;42.640;23.380;2023-10-08T11:53:59;94220.72;;;23.58;32.30
11808;BME280;5961;42.640;23.380;2023-10-08T11:56:26;94216.88;;;23.55;32.40
11808;BME280;5961;42.640;23.380;2023-10-08T11:58:53;94201.53;;;23.45;32.77
11808;BME280;5961;42.640;23.380;2023-10-08T12:01:22;94183.59;;;23.51;32.35
11808;BME280;5961;42.640;23.380;2023-10-08T12:03:49;94201.13;;;23.46;32.74
11808;BME280;5961;42.640;23.380;2023-10-08T12:06:16;94220.66;;;23.34;32.83
11808;BME280;5961;42.640;23.380;2023-10-08T12:08:46;94202.81;;;23.33;32.72
11808;BME280;5961;42.640;23.380;2023-10-08T12:11:19;94192.03;;;23.30;32.82
11808;BME280;5961;42.640;23.380;2023-10-08T12:13:48;94201.94;;;23.13;33.27
11808;BME280;5961;42.640;23.380;2023-10-08T12:16:16;94193.47;;;23.11;33.90
11808;BME280;5961;42.640;23.380;2023-10-08T12:18:48;94186.66;;;23.26;33.15
11808;BME280;5961;42.640;23.380;2023-10-08T12:21:19;94203.88;;;23.43;32.95
11808;BME280;5961;42.640;23.380;2023-10-08T12:23:48;94207.53;;;23.60;32.98
11808;BME280;5961;42.640;23.380;2023-10-08T12:26:17;94192.44;;;23.82;32.66
11808;BME280;5961;42.640;23.380;2023-10-08T12:28:45;94215.00;;;24.02;31.85
11808;BME280;5961;42.640;23.380;2023-10-08T12:31:14;94201.78;;;24.27;31.78
11808;BME280;5961;42.640;23.380;2023-10-08T12:33:42;94194.66;;;24.37;31.90
11808;BME280;5961;42.640;23.380;2023-10-08T12:36:10;94178.50;;;24.49;31.33
11808;BME280;5961;42.640;23.380;2023-10-08T12:38:39;94190.50;;;24.52;31.44
11808;BME280;5961;42.640;23.380;2023-10-08T12:41:08;94198.91;;;24.57;31.21
11808;BME280;5961;42.640;23.380;2023-10-08T12:43:39;94207.69;;;24.45;31.70
11808;BME280;5961;42.640;23.380;2023-10-08T12:46:08;94216.91;;;24.28;31.92
11808;BME280;5961;42.640;23.380;2023-10-08T12:48:41;94208.88;;;24.44;31.90
11808;BME280;5961;42.640;23.380;2023-10-08T12:51:09;94281.41;;;24.47;31.45
11808;BME280;5961;42.640;23.380;2023-10-08T12:53:37;94191.97;;;24.56;31.12
11808;BME280;5961;42.640;23.380;2023-10-08T12:56:05;94176.34;;;24.61;31.34
11808;BME280;5961;42.640;23.380;2023-10-08T12:58:34;94191.97;;;24.56;31.66
11808;BME280;5961;42.640;23.380;2023-10-08T13:01:07;94194.59;;;24.40;31.93
11808;BME280;5961;42.640;23.380;2023-10-08T13:03:35;94231.16;;;24.13;32.39
11808;BME280;5961;42.640;23.380;2023-10-08T13:06:07;94204.25;;;23.95;32.88
11808;BME280;5961;42.640;23.380;2023-10-08T13:08:40;94191.06;;;23.70;32.88
11808;BME280;5961;42.640;23.380;2023-10-08T13:11:07;94160.13;;;23.68;32.90
11808;BME280;5961;42.640;23.380;2023-10-08T13:13:36;94183.47;;;23.85;32.87
11808;BME280;5961;42.640;23.380;2023-10-08T13:16:03;94170.53;;;23.96;32.85
11808;BME280;5961;42.640;23.380;2023-10-08T13:18:33;94212.44;;;24.18;32.34
11808;BME280;5961;42.640;23.380;2023-10-08T13:21:03;94189.66;;;24.35;31.80
11808;BME280;5961;42.640;23.380;2023-10-08T13:23:30;94184.28;;;24.51;31.66
11808;BME280;5961;42.640;23.380;2023-10-08T13:26:00;94165.94;;;24.75;30.78
11808;BME280;5961;42.640;23.380;2023-10-08T13:28:30;94178.09;;;24.90;30.63
11808;BME280;5961;42.640;23.380;2023-10-08T13:31:00;94179.59;;;24.95;30.41
11808;BME280;5961;42.640;23.380;2023-10-08T13:33:35;94153.69;;;25.06;30.31
11808;BME280;5961;42.640;23.380;2023-10-08T13:36:04;94197.59;;;25.25;30.56
11808;BME280;5961;42.640;23.380;2023-10-08T13:38:33;94155.38;;;25.36;30.17
11808;BME280;5961;42.640;23.380;2023-10-08T13:41:00;94151.38;;;25.41;29.96
11808;BME280;5961;42.640;23.380;2023-10-08T13:43:32;94141.56;;;25.27;29.69
11808;BME280;5961;42.640;23.380;2023-10-08T13:46:05;94205.59;;;25.51;30.03
11808;BME280;5961;42.640;23.380;2023-10-08T13:48:38;94174.59;;;25.45;29.56
11808;BME280;5961;42.640;23.380;2023-10-08T13:51:06;94160.09;;;25.52;29.48
11808;BME280;5961;42.640;23.380;2023-10-08T13:53:39;94152.69;;;25.52;29.51
11808;BME280;5961;42.640;23.380;2023-10-08T13:56:06;94174.81;;;25.54;29.72
11808;BME280;5961;42.640;23.380;2023-10-08T13:58:37;94168.94;;;25.56;29.46
11808;BME280;5961;42.640;23.380;2023-10-08T14:01:08;94165.19;;;25.66;29.37
11808;BME280;5961;42.640;23.380;2023-10-08T14:03:44;94172.09;;;25.54;29.64
11808;BME280;5961;42.640;23.380;2023-10-08T14:06:12;94168.25;;;25.52;29.48
11808;BME280;5961;42.640;23.380;2023-10-08T14:08:39;94202.53;;;25.49;29.98
11808;BME280;5961;42.640;23.380;2023-10-08T14:11:09;94176.22;;;25.43;29.90
11808;BME280;5961;42.640;23.380;2023-10-08T14:13:38;94176.28;;;25.23;29.59
11808;BME280;5961;42.640;23.380;2023-10-08T14:16:09;94149.41;;;25.25;30.39
11808;BME280;5961;42.640;23.380;2023-10-08T14:18:37;94155.38;;;25.36;30.28
11808;BME280;5961;42.640;23.380;2023-10-08T14:21:07;94155.63;;;25.42;30.00
11808;BME280;5961;42.640;23.380;2023-10-08T14:23:35;94150.94;;;25.42;29.58
11808;BME280;5961;42.640;23.380;2023-10-08T14:26:05;94147.38;;;25.45;29.33
11808;BME280;5961;42.640;23.380;2023-10-08T14:28:32;94151.31;;;25.44;29.38
11808;BME280;5961;42.640;23.380;2023-10-08T14:31:17;94188.84;;;25.33;29.65
11808;BME280;5961;42.640;23.380;2023-10-08T14:33:48;94167.72;;;25.05;29.84
11808;BME280;5961;42.640;23.380;2023-10-08T14:36:31;94180.06;;;25.09;29.82
11808;BME280;5961;42.640;23.380;2023-10-08T14:39:15;94160.69;;;25.07;30.22